createdAt,value
2018-05-01T00:00:11.925Z,91.70
2018-05-01T00:02:41.026Z,91.60
2018-05-01T00:05:10.098Z,91.70
2018-05-01T00:07:39.206Z,91.70
2018-05-01T00:10:08.264Z,91.50
2018-05-01T00:12:37.324Z,91.60
2018-05-01T00:15:07.164Z,91.40
2018-05-01T00:17:36.215Z,91.40
2018-05-01T00:20:06.064Z,91.60
2018-05-01T00:22:35.236Z,91.60
2018-05-01T00:25:05.042Z,91.60
2018-05-01T00:27:34.899Z,91.70
2018-05-01T00:30:03.977Z,91.60
2018-05-01T00:32:33.069Z,91.60
2018-05-01T00:35:02.164Z,91.40
2018-05-01T00:37:31.210Z,91.50
2018-05-01T00:40:00.598Z,91.40
2018-05-01T00:42:29.673Z,91.40
2018-05-01T00:44:58.768Z,91.30
2018-05-01T00:47:27.839Z,91.70
2018-05-01T00:49:57.726Z,91.70
2018-05-01T00:52:44.512Z,91.70
2018-05-01T00:55:13.596Z,91.50
2018-05-01T00:57:42.661Z,91.70
2018-05-01T01:00:11.735Z,91.70
2018-05-01T01:02:41.591Z,91.60
2018-05-01T01:05:10.637Z,91.60
2018-05-01T01:07:40.491Z,91.40
2018-05-01T01:10:09.617Z,91.40
2018-05-01T01:12:38.689Z,91.40
2018-05-01T01:15:07.759Z,91.20
2018-05-01T01:17:36.845Z,91.20
2018-05-01T01:20:05.903Z,91.40
2018-05-01T01:22:34.992Z,91.50
2018-05-01T01:25:04.074Z,91.40
2018-05-01T01:27:33.143Z,91.40
2018-05-01T01:30:02.247Z,91.40
2018-05-01T01:32:31.311Z,91.30
2018-05-01T01:34:59.577Z,91.50
2018-05-01T01:37:28.659Z,91.40
2018-05-01T01:39:57.122Z,91.40
2018-05-01T01:42:25.445Z,91.50
2018-05-01T01:44:53.748Z,91.50
2018-05-01T01:47:22.030Z,91.40
2018-05-01T01:49:50.305Z,91.50
2018-05-01T01:52:18.624Z,91.50
2018-05-01T01:54:47.670Z,91.70
2018-05-01T01:57:15.964Z,91.40
2018-05-01T01:59:44.301Z,91.30
2018-05-01T02:02:12.608Z,91.30
2018-05-01T02:04:40.866Z,91.10
2018-05-01T02:07:09.332Z,91.10
2018-05-01T02:09:37.600Z,91.30
2018-05-01T02:12:06.672Z,91.40
2018-05-01T02:14:35.795Z,91.60
2018-05-01T02:17:04.066Z,91.30
2018-05-01T02:19:32.420Z,91.40
2018-05-01T02:22:00.716Z,91.30
2018-05-01T02:24:29.765Z,91.50
2018-05-01T02:26:58.030Z,91.50
2018-05-01T02:29:26.333Z,91.50
2018-05-01T02:31:54.608Z,91.40
2018-05-01T02:34:22.893Z,91.50
2018-05-01T02:36:51.317Z,91.40
2018-05-01T02:39:19.659Z,91.30
2018-05-01T02:41:47.927Z,91.20
2018-05-01T02:44:16.283Z,91.20
2018-05-01T02:46:44.770Z,91.50
2018-05-01T02:49:13.031Z,91.20
2018-05-01T02:51:41.333Z,91.50
2018-05-01T02:54:09.605Z,91.40
2018-05-01T02:56:37.864Z,91.60
2018-05-01T02:59:06.197Z,91.60
2018-05-01T03:01:34.466Z,91.50
2018-05-01T03:04:03.507Z,91.50
2018-05-01T03:06:31.852Z,91.50
2018-05-01T03:09:00.195Z,91.30
2018-05-01T03:11:28.457Z,91.30
2018-05-01T03:13:56.766Z,91.20
2018-05-01T03:16:25.031Z,91.10
2018-05-01T03:18:54.105Z,91.10
2018-05-01T03:21:22.415Z,91.10
2018-05-01T03:23:50.688Z,91.00
2018-05-01T03:26:19.755Z,90.70
2018-05-01T03:28:48.026Z,90.70
2018-05-01T03:31:16.294Z,90.50
2018-05-01T03:33:44.585Z,90.30
2018-05-01T03:36:12.867Z,90.70
2018-05-01T03:38:41.157Z,90.80
2018-05-01T03:41:10.221Z,91.10
2018-05-01T03:43:38.511Z,91.10
2018-05-01T03:46:06.907Z,91.00
2018-05-01T03:48:35.172Z,90.80
2018-05-01T03:51:04.253Z,91.10
2018-05-01T03:53:32.540Z,91.10
2018-05-01T03:56:04.927Z,91.40
2018-05-01T03:58:33.964Z,92.00
2018-05-01T04:01:02.249Z,92.00
2018-05-01T04:03:30.613Z,92.20
2018-05-01T04:05:58.875Z,92.10
2018-05-01T04:08:27.201Z,92.10
2018-05-01T04:10:56.499Z,92.10
2018-05-01T04:13:24.778Z,91.90
2018-05-01T04:15:53.104Z,91.60
2018-05-01T04:18:21.453Z,91.80
2018-05-01T04:20:50.538Z,91.90
2018-05-01T04:23:18.841Z,91.80
2018-05-01T04:25:47.109Z,92.00
2018-05-01T04:28:16.162Z,91.80
2018-05-01T04:30:44.469Z,91.80
2018-05-01T04:33:13.537Z,91.70
2018-05-01T04:35:41.844Z,91.70
2018-05-01T04:38:10.907Z,91.60
2018-05-01T04:40:39.201Z,91.50
2018-05-01T04:43:07.493Z,91.50
2018-05-01T04:45:36.542Z,91.40
2018-05-01T04:48:04.871Z,91.40
2018-05-01T04:50:33.349Z,91.30
2018-05-01T04:53:02.430Z,91.30
2018-05-01T04:55:31.485Z,91.30
2018-05-01T04:57:59.789Z,91.30
2018-05-01T05:00:28.065Z,91.10
2018-05-01T05:02:56.387Z,90.90
2018-05-01T05:05:24.825Z,91.50
2018-05-01T05:07:53.098Z,91.10
2018-05-01T05:10:21.381Z,91.20
2018-05-01T05:12:50.454Z,91.50
2018-05-01T05:15:18.731Z,91.50
2018-05-01T05:17:46.995Z,91.40
2018-05-01T05:20:15.295Z,91.70
2018-05-01T05:22:43.553Z,91.80
2018-05-01T05:25:11.873Z,91.80
2018-05-01T05:27:40.163Z,91.70
2018-05-01T05:30:08.426Z,91.90
2018-05-01T05:32:37.492Z,92.00
2018-05-01T05:35:05.790Z,91.90
2018-05-01T05:37:34.842Z,92.20
2018-05-01T05:40:03.297Z,92.20
2018-05-01T05:42:31.589Z,91.90
2018-05-01T05:44:59.870Z,91.90
2018-05-01T05:47:28.167Z,91.90
2018-05-01T05:49:56.437Z,91.70
2018-05-01T05:52:24.750Z,91.90
2018-05-01T05:54:53.010Z,92.00
2018-05-01T05:57:22.033Z,91.80
2018-05-01T05:59:50.432Z,91.80
2018-05-01T06:02:18.759Z,91.60
2018-05-01T06:04:47.054Z,91.60
2018-05-01T06:07:16.131Z,91.80
2018-05-01T06:09:44.479Z,91.70
2018-05-01T06:12:12.860Z,91.50
2018-05-01T06:14:41.149Z,91.80
2018-05-01T06:17:09.467Z,91.90
2018-05-01T06:19:37.775Z,91.70
2018-05-01T06:22:06.628Z,91.80
2018-05-01T06:24:34.916Z,92.10
2018-05-01T06:27:03.207Z,92.20
2018-05-01T06:29:31.474Z,92.20
2018-05-01T06:31:59.777Z,92.20
2018-05-01T06:34:28.093Z,91.90
2018-05-01T06:36:57.149Z,92.10
2018-05-01T06:39:25.418Z,92.10
2018-05-01T06:41:53.706Z,91.80
2018-05-01T06:44:21.968Z,91.70
2018-05-01T06:46:51.061Z,91.90
2018-05-01T06:49:19.306Z,91.90
2018-05-01T06:51:47.575Z,91.80
2018-05-01T06:54:15.860Z,91.40
2018-05-01T06:56:44.221Z,89.00
2018-05-01T06:59:13.315Z,84.50
2018-05-01T07:01:42.352Z,83.20
2018-05-01T07:04:10.687Z,83.10
2018-05-01T07:06:39.731Z,80.30
2018-05-01T07:09:08.805Z,77.40
2018-05-01T07:11:37.074Z,77.40
2018-05-01T07:14:05.369Z,73.10
2018-05-01T07:16:33.637Z,72.70
2018-05-01T07:19:02.085Z,72.30
2018-05-01T07:21:31.111Z,72.20
2018-05-01T07:23:59.597Z,72.20
2018-05-01T07:26:28.074Z,70.20
2018-05-01T07:28:56.288Z,68.30
2018-05-01T07:31:24.551Z,72.10
2018-05-01T07:33:52.868Z,67.70
2018-05-01T07:36:21.896Z,68.30
2018-05-01T07:38:50.164Z,68.30
2018-05-01T07:41:18.469Z,66.20
2018-05-01T07:43:46.733Z,66.00
2018-05-01T07:46:14.996Z,61.00
2018-05-01T07:48:43.414Z,61.60
2018-05-01T07:51:11.766Z,61.10
2018-05-01T07:53:40.010Z,59.70
2018-05-01T07:56:08.314Z,64.50
2018-05-01T07:58:36.593Z,64.00
2018-05-01T08:01:04.849Z,62.70
2018-05-01T08:03:33.140Z,58.60
2018-05-01T08:06:01.416Z,58.60
2018-05-01T08:08:29.678Z,58.90
2018-05-01T08:10:57.970Z,59.20
2018-05-01T08:13:26.216Z,58.10
2018-05-01T08:15:55.237Z,55.50
2018-05-01T08:18:23.550Z,55.50
2018-05-01T08:20:51.826Z,54.30
2018-05-01T08:23:20.082Z,52.60
2018-05-01T08:25:52.734Z,52.30
2018-05-01T08:28:21.015Z,56.70
2018-05-01T08:30:49.322Z,52.60
2018-05-01T08:33:17.585Z,48.80
2018-05-01T08:35:45.833Z,51.20
2018-05-01T08:38:14.213Z,49.60
2018-05-01T08:40:42.506Z,49.40
2018-05-01T08:43:10.733Z,51.30
2018-05-01T08:45:39.800Z,48.20
2018-05-01T08:48:08.066Z,47.60
2018-05-01T08:50:36.322Z,47.40
2018-05-01T08:53:04.638Z,46.50
2018-05-01T08:55:32.905Z,47.00
2018-05-01T08:58:01.169Z,47.40
2018-05-01T09:00:29.500Z,47.00
2018-05-01T09:02:58.562Z,48.10
2018-05-01T09:05:26.803Z,48.00
2018-05-01T09:07:55.185Z,46.40
2018-05-01T09:10:23.428Z,46.80
2018-05-01T09:12:51.698Z,47.10
2018-05-01T09:15:20.800Z,42.80
2018-05-01T09:17:49.169Z,42.80
2018-05-01T09:20:17.333Z,41.80
2018-05-01T09:22:46.406Z,41.50
2018-05-01T09:25:14.670Z,41.40
2018-05-01T09:27:43.098Z,41.90
2018-05-01T09:30:12.166Z,41.90
2018-05-01T09:32:40.433Z,41.90
2018-05-01T09:35:08.693Z,40.10
2018-05-01T09:37:37.001Z,39.10
2018-05-01T09:40:06.022Z,39.60
2018-05-01T09:42:34.282Z,39.50
2018-05-01T09:45:03.464Z,37.30
2018-05-01T09:47:31.758Z,37.20
2018-05-01T09:49:59.982Z,36.40
2018-05-01T09:52:29.060Z,38.60
2018-05-01T09:54:58.140Z,38.00
2018-05-01T09:57:27.215Z,35.90
2018-05-01T09:59:57.045Z,37.20
2018-05-01T10:02:26.085Z,37.60
2018-05-01T10:04:55.154Z,37.80
2018-05-01T10:07:24.251Z,38.40
2018-05-01T10:09:53.341Z,36.40
2018-05-01T10:12:22.454Z,35.80
2018-05-01T10:14:51.499Z,36.50
2018-05-01T10:17:21.330Z,35.70
2018-05-01T10:19:50.845Z,35.60
2018-05-01T10:22:19.888Z,36.10
2018-05-01T10:24:48.989Z,34.60
2018-05-01T10:27:18.036Z,34.00
2018-05-01T10:29:47.205Z,35.00
2018-05-01T10:32:16.264Z,36.60
2018-05-01T10:34:45.343Z,36.10
2018-05-01T10:37:14.412Z,32.10
2018-05-01T10:39:46.819Z,32.90
2018-05-01T10:42:16.901Z,32.40
2018-05-01T10:44:46.001Z,32.40
2018-05-01T10:47:15.062Z,31.50
2018-05-01T10:49:44.954Z,31.50
2018-05-01T10:52:14.025Z,31.50
2018-05-01T10:54:43.200Z,31.00
2018-05-01T10:57:12.199Z,31.40
2018-05-01T10:59:41.396Z,30.50
2018-05-01T11:02:10.468Z,29.00
2018-05-01T11:04:39.539Z,28.50
2018-05-01T11:07:09.351Z,30.00
2018-05-01T11:09:39.204Z,29.40
2018-05-01T11:12:08.259Z,29.40
2018-05-01T11:14:38.197Z,29.70
2018-05-01T11:17:07.240Z,29.70
2018-05-01T11:19:36.283Z,28.50
2018-05-01T11:22:05.376Z,27.90
2018-05-01T11:24:34.499Z,27.00
2018-05-01T11:27:03.491Z,27.50
2018-05-01T11:29:32.590Z,28.60
2018-05-01T11:32:01.693Z,28.10
2018-05-01T11:34:30.733Z,27.60
2018-05-01T11:37:00.564Z,26.80
2018-05-01T11:39:29.605Z,26.80
2018-05-01T11:41:58.766Z,26.60
2018-05-01T11:44:27.829Z,27.50
2018-05-01T11:46:57.673Z,25.90
2018-05-01T11:49:26.713Z,25.90
2018-05-01T11:51:55.789Z,25.40
2018-05-01T11:54:24.873Z,25.10
2018-05-01T11:56:53.920Z,25.80
2018-05-01T11:59:23.985Z,25.30
2018-05-01T12:01:53.048Z,25.30
2018-05-01T12:04:22.190Z,25.20
2018-05-01T12:06:51.176Z,26.10
2018-05-01T12:09:20.244Z,25.80
2018-05-01T12:11:49.314Z,24.40
2018-05-01T12:14:19.122Z,23.80
2018-05-01T12:16:49.062Z,24.30
2018-05-01T12:19:18.135Z,24.20
2018-05-01T12:21:47.964Z,23.30
2018-05-01T12:24:17.034Z,23.30
2018-05-01T12:26:46.124Z,23.40
2018-05-01T12:29:15.154Z,22.90
2018-05-01T12:31:44.215Z,22.80
2018-05-01T12:34:14.019Z,23.80
2018-05-01T12:36:43.210Z,23.30
2018-05-01T12:39:12.317Z,22.60
2018-05-01T12:41:41.804Z,22.50
2018-05-01T12:44:10.876Z,23.00
2018-05-01T12:46:39.952Z,23.00
2018-05-01T12:49:08.998Z,22.00
2018-05-01T12:51:38.051Z,22.00
2018-05-01T12:54:07.121Z,22.40
2018-05-01T12:56:36.179Z,22.50
2018-05-01T12:59:05.249Z,21.50
2018-05-01T13:01:34.309Z,21.70
2018-05-01T13:04:03.389Z,21.60
2018-05-01T13:06:32.465Z,21.90
2018-05-01T13:09:01.516Z,21.90
2018-05-01T13:11:30.580Z,21.90
2018-05-01T13:13:59.660Z,21.70
2018-05-01T13:16:29.464Z,22.50
2018-05-01T13:18:59.298Z,23.20
2018-05-01T13:21:28.339Z,23.10
2018-05-01T13:23:57.408Z,22.50
2018-05-01T13:26:26.466Z,23.10
2018-05-01T13:28:56.312Z,23.50
2018-05-01T13:31:25.383Z,23.50
2018-05-01T13:33:55.234Z,24.30
2018-05-01T13:36:24.316Z,24.30
2018-05-01T13:38:53.363Z,24.60
2018-05-01T13:41:22.451Z,25.80
2018-05-01T13:43:51.485Z,26.00
2018-05-01T13:46:20.542Z,26.10
2018-05-01T13:48:49.609Z,25.70
2018-05-01T13:51:18.730Z,25.10
2018-05-01T13:53:47.780Z,25.30
2018-05-01T13:56:16.909Z,25.20
2018-05-01T13:58:46.010Z,25.70
2018-05-01T14:01:15.049Z,28.00
2018-05-01T14:03:44.120Z,25.80
2018-05-01T14:06:13.170Z,27.50
2018-05-01T14:08:42.235Z,26.50
2018-05-01T14:11:11.384Z,25.60
2018-05-01T14:13:40.424Z,25.80
2018-05-01T14:16:09.464Z,26.80
2018-05-01T14:18:38.550Z,27.40
2018-05-01T14:21:07.611Z,27.50
2018-05-01T14:23:37.413Z,26.00
2018-05-01T14:26:06.621Z,26.40
2018-05-01T14:28:35.611Z,26.70
2018-05-01T14:31:04.820Z,26.60
2018-05-01T14:33:33.889Z,26.20
2018-05-01T14:36:02.954Z,27.00
2018-05-01T14:38:32.040Z,27.10
2018-05-01T14:41:01.130Z,27.00
2018-05-01T14:43:30.172Z,27.50
2018-05-01T14:45:59.206Z,27.50
2018-05-01T14:48:28.279Z,27.30
2018-05-01T14:50:57.378Z,26.90
2018-05-01T14:53:26.430Z,27.90
2018-05-01T14:55:55.485Z,28.60
2018-05-01T14:58:24.529Z,28.30
2018-05-01T15:00:54.357Z,27.90
2018-05-01T15:03:23.407Z,27.90
2018-05-01T15:05:52.497Z,27.60
2018-05-01T15:08:21.567Z,27.40
2018-05-01T15:10:50.614Z,26.80
2018-05-01T15:13:20.455Z,27.40
2018-05-01T15:15:49.501Z,27.30
2018-05-01T15:18:18.596Z,28.90
2018-05-01T15:20:47.651Z,27.20
2018-05-01T15:23:16.693Z,25.80
2018-05-01T15:25:45.784Z,25.70
2018-05-01T15:28:14.841Z,25.70
2018-05-01T15:30:43.924Z,26.60
2018-05-01T15:33:13.052Z,27.80
2018-05-01T15:35:42.078Z,27.90
2018-05-01T15:38:11.914Z,28.30
2018-05-01T15:40:40.960Z,28.20
2018-05-01T15:43:10.048Z,27.00
2018-05-01T15:45:39.112Z,26.30
2018-05-01T15:48:08.230Z,25.30
2018-05-01T15:50:37.272Z,24.70
2018-05-01T15:53:07.109Z,25.10
2018-05-01T15:55:36.178Z,25.10
2018-05-01T15:58:05.981Z,26.20
2018-05-01T16:00:35.871Z,26.40
2018-05-01T16:03:05.669Z,27.20
2018-05-01T16:05:35.503Z,27.60
2018-05-01T16:08:04.547Z,27.60
2018-05-01T16:10:33.606Z,28.40
2018-05-01T16:13:03.432Z,29.20
2018-05-01T16:15:33.273Z,29.50
2018-05-01T16:18:02.325Z,29.50
2018-05-01T16:20:31.548Z,30.00
2018-05-01T16:23:01.397Z,30.60
2018-05-01T16:25:31.849Z,30.60
2018-05-01T16:28:00.929Z,31.10
2018-05-01T16:30:29.996Z,32.40
2018-05-01T16:32:59.113Z,33.90
2018-05-01T16:35:28.149Z,34.40
2018-05-01T16:37:58.208Z,36.70
2018-05-01T16:40:27.243Z,36.70
2018-05-01T16:42:56.361Z,37.60
2018-05-01T16:45:26.481Z,39.60
2018-05-01T16:47:55.648Z,39.50
2018-05-01T16:50:24.766Z,40.20
2018-05-01T16:52:54.466Z,41.80
2018-05-01T16:55:24.166Z,41.40
2018-05-01T16:57:53.772Z,42.50
2018-05-01T17:00:22.819Z,42.90
2018-05-01T17:02:51.969Z,42.10
2018-05-01T17:05:21.018Z,42.40
2018-05-01T17:07:50.105Z,43.90
2018-05-01T17:10:19.223Z,43.70
2018-05-01T17:12:48.357Z,45.00
2018-05-01T17:15:18.145Z,46.10
2018-05-01T17:17:47.241Z,46.10
2018-05-01T17:20:16.345Z,46.40
2018-05-01T17:22:45.478Z,46.50
2018-05-01T17:25:15.341Z,47.40
2018-05-01T17:27:44.401Z,47.30
2018-05-01T17:30:13.484Z,47.20
2018-05-01T17:32:42.595Z,47.20
2018-05-01T17:35:11.648Z,47.30
2018-05-01T17:37:40.690Z,47.30
2018-05-01T17:40:09.815Z,47.30
2018-05-01T17:42:38.883Z,47.60
2018-05-01T17:45:07.925Z,48.40
2018-05-01T17:47:37.104Z,48.70
2018-05-01T17:50:06.149Z,49.00
2018-05-01T17:52:35.260Z,49.50
2018-05-01T17:55:04.632Z,50.30
2018-05-01T17:57:33.694Z,50.40
2018-05-01T18:00:02.715Z,49.70
2018-05-01T18:02:32.596Z,51.50
2018-05-01T18:05:01.639Z,51.50
2018-05-01T18:07:30.676Z,51.70
2018-05-01T18:09:59.871Z,51.90
2018-05-01T18:12:28.946Z,51.80
2018-05-01T18:14:57.993Z,52.70
2018-05-01T18:17:28.021Z,53.80
2018-05-01T18:19:57.840Z,53.80
2018-05-01T18:22:27.952Z,54.20
2018-05-01T18:24:57.846Z,54.10
2018-05-01T18:27:27.154Z,54.00
2018-05-01T18:29:56.215Z,54.40
2018-05-01T18:32:25.343Z,55.00
2018-05-01T18:34:54.385Z,55.30
2018-05-01T18:37:23.425Z,55.90
2018-05-01T18:39:52.545Z,56.30
2018-05-01T18:42:22.361Z,57.30
2018-05-01T18:44:51.415Z,57.30
2018-05-01T18:47:20.493Z,57.50
2018-05-01T18:49:49.524Z,57.40
2018-05-01T18:52:19.346Z,57.70
2018-05-01T18:54:49.232Z,57.80
2018-05-01T18:57:18.299Z,57.80
2018-05-01T18:59:47.345Z,58.10
2018-05-01T19:02:17.198Z,58.70
2018-05-01T19:04:46.331Z,58.70
2018-05-01T19:07:16.076Z,59.20
2018-05-01T19:09:45.917Z,59.60
2018-05-01T19:12:14.968Z,59.60
2018-05-01T19:14:44.780Z,60.00
2018-05-01T19:17:14.596Z,60.60
2018-05-01T19:19:45.216Z,61.50
2018-05-01T19:22:14.315Z,61.50
2018-05-01T19:24:43.349Z,61.80
2018-05-01T19:27:12.434Z,62.00
2018-05-01T19:29:42.053Z,62.00
2018-05-01T19:32:11.093Z,62.20
2018-05-01T19:34:40.206Z,62.40
2018-05-01T19:37:09.239Z,62.40
2018-05-01T19:39:38.578Z,63.00
2018-05-01T19:42:07.627Z,63.00
2018-05-01T19:44:36.824Z,63.20
2018-05-01T19:47:05.861Z,63.50
2018-05-01T19:49:35.906Z,64.30
2018-05-01T19:52:05.719Z,64.30
2018-05-01T19:54:35.532Z,63.80
2018-05-01T19:57:05.358Z,64.20
2018-05-01T19:59:34.397Z,63.40
2018-05-01T20:02:03.516Z,63.20
2018-05-01T20:04:32.862Z,63.10
2018-05-01T20:07:01.917Z,63.10
2018-05-01T20:09:31.029Z,63.10
2018-05-01T20:12:01.590Z,63.80
2018-05-01T20:14:30.628Z,63.70
2018-05-01T20:16:59.661Z,63.90
2018-05-01T20:19:28.697Z,64.60
2018-05-01T20:21:58.190Z,65.30
2018-05-01T20:24:27.247Z,65.90
2018-05-01T20:26:57.056Z,66.20
2018-05-01T20:29:26.946Z,66.40
2018-05-01T20:31:55.996Z,66.40
2018-05-01T20:34:25.061Z,66.60
2018-05-01T20:36:54.899Z,66.80
2018-05-01T20:39:23.941Z,66.80
2018-05-01T20:41:52.989Z,67.00
2018-05-01T20:44:25.408Z,67.10
2018-05-01T20:46:54.393Z,66.90
2018-05-01T20:49:23.496Z,66.50
2018-05-01T20:51:52.529Z,66.80
2018-05-01T20:54:21.576Z,67.10
2018-05-01T20:56:50.645Z,67.50
2018-05-01T20:59:19.706Z,67.90
2018-05-01T21:01:49.526Z,68.30
2018-05-01T21:04:18.591Z,68.30
2018-05-01T21:06:48.396Z,68.50
2018-05-01T21:09:18.217Z,68.80
2018-05-01T21:11:48.180Z,69.20
2018-05-01T21:14:17.221Z,69.10
2018-05-01T21:16:47.070Z,70.10
2018-05-01T21:19:16.187Z,69.90
2018-05-01T21:21:45.232Z,69.90
2018-05-01T21:24:15.083Z,70.60
2018-05-01T21:26:44.313Z,70.60
2018-05-01T21:29:13.394Z,70.50
2018-05-01T21:31:42.449Z,70.80
2018-05-01T21:34:12.329Z,71.80
2018-05-01T21:36:41.375Z,71.60
2018-05-01T21:39:10.417Z,72.60
2018-05-01T21:41:39.603Z,72.50
2018-05-01T21:44:08.640Z,72.30
2018-05-01T21:46:37.697Z,72.50
2018-05-01T21:49:06.768Z,72.50
2018-05-01T21:51:35.826Z,72.10
2018-05-01T21:54:04.904Z,72.40
2018-05-01T21:56:33.990Z,73.00
2018-05-01T21:59:06.955Z,73.10
2018-05-01T22:01:37.016Z,72.30
2018-05-01T22:04:06.073Z,72.30
2018-05-01T22:06:35.104Z,72.60
2018-05-01T22:09:04.204Z,72.40
2018-05-01T22:11:33.265Z,72.20
2018-05-01T22:14:02.446Z,72.80
2018-05-01T22:16:31.541Z,72.60
2018-05-01T22:19:00.580Z,72.70
2018-05-01T22:21:29.637Z,72.70
2018-05-01T22:23:58.818Z,72.50
2018-05-01T22:26:27.955Z,73.20
2018-05-01T22:28:57.839Z,73.10
2018-05-01T22:31:26.958Z,73.00
2018-05-01T22:33:56.777Z,73.10
2018-05-01T22:36:26.599Z,73.50
2018-05-01T22:38:55.645Z,73.40
2018-05-01T22:41:25.466Z,73.90
2018-05-01T22:43:54.710Z,73.80
2018-05-01T22:46:24.508Z,74.10
2018-05-01T22:48:54.325Z,74.30
2018-05-01T22:51:24.769Z,74.60
2018-05-01T22:53:54.330Z,74.60
2018-05-01T22:56:23.365Z,74.90
2018-05-01T22:58:52.491Z,74.70
2018-05-01T23:01:21.523Z,75.10
2018-05-01T23:03:51.333Z,75.50
2018-05-01T23:06:21.176Z,75.40
2018-05-01T23:08:50.965Z,75.80
2018-05-01T23:11:20.855Z,75.40
2018-05-01T23:13:49.905Z,75.40
2018-05-01T23:16:18.956Z,75.50
2018-05-01T23:18:48.086Z,75.80
2018-05-01T23:21:17.249Z,76.00
2018-05-01T23:23:46.272Z,76.20
2018-05-01T23:26:15.459Z,75.60
2018-05-01T23:28:45.567Z,76.40
2018-05-01T23:31:14.592Z,76.30
2018-05-01T23:33:43.693Z,76.10
2018-05-01T23:36:12.776Z,76.20
2018-05-01T23:38:41.824Z,76.10
2018-05-01T23:41:10.901Z,75.80
2018-05-01T23:43:39.947Z,76.40
2018-05-01T23:46:10.255Z,76.50
2018-05-01T23:48:40.086Z,76.00
2018-05-01T23:51:09.133Z,76.00
2018-05-01T23:53:38.180Z,75.80
2018-05-01T23:56:09.881Z,75.80
2018-05-01T23:58:38.925Z,76.10
